Details From KELP - El Paso Intl
To MMPR - Licenciado Gustavo Diaz Ordaz Intl
Flight Number -
Tags Generated
Created
Modified
Stats Distance 671 nm / 1,243 km
Max Altitude 0 ft / 0 m
Waypoints 2
Social Downloads 1
Likes 0
Share VATSIM

Download

Looking for another format? Having issues loading an existing format? Contact us
Advertisement - Login to hide

Notes

Generated

Route

KELP MMPR

ID Type Via Altitude Latitude Longitude Leg Dist Tot Dist Heading (true) Name
O KELP APT - 0 ft / 0 m 31.80572˚ -106.36983˚ - 0 nm - El Paso Intl
O MMPR APT - 0 ft / 0 m 20.67053˚ -105.26511˚ 671 nm 671 nm 175° / 175° -

Altitude Profile

Advertisement - Login to hide

Weather


0- 5 10 15 20 25 30 35+ Temperature / ° C

Clouds and Precipitation
Forecast for 2017-12-18 06:00 UTC. Updated 2 hours ago

Ground ~20,000 ft ~40,000 ft Winds

KELP

Details ICAO KELP (ELP)
Name El Paso Intl
Region United States
Timezone America/Denver (UTC-7.0)
Stats Elevation 3,958 ft / 1,206 m (AMSL)
Location 31.806535° -106.374581°
Runways 3
Magnetic Variation 8.108° E

METAR

KELP 180251Z 33007KT 7SM -RA OVC060 08/07 A3007 RMK AO2 SLP161 P0006 60010 T00780067 51019

Decode

TAF

KELP 172340Z 1800/1824 02007KT P6SM -RA BKN050 OVC080 TEMPO 1800/1803 4SM RA BR SCT020 BKN040 OVC060 FM180300 01007KT P6SM VCSH FEW012 BKN060 TEMPO 1807/1811 P6SM -RA FEW012 SCT020 BKN030 FM181400 VRB05KT P6SM VCSH BKN060 FM182000 23007KT P6SM SCT070 BKN140

Decode

Departure Runways

ID Width Length Bearing (true) Bearing (mag) Surface Threshold Offset Overrun Length
04 150 ft / 46 m 12,021 ft / 3,664 m 49.85° 41.74° Asphalt 0 ft / 0 m 1,000 ft / 305 m
08L 75 ft / 23 m 5,482 ft / 1,671 m 88.32° 80.21° Asphalt 0 ft / 0 m 0 ft / 0 m
08R 150 ft / 46 m 9,007 ft / 2,746 m 93.32° 85.21° Asphalt 0 ft / 0 m 3,100 ft / 945 m
22 150 ft / 46 m 12,021 ft / 3,664 m 229.87° 221.76° Asphalt 0 ft / 0 m 0 ft / 0 m
26L 150 ft / 46 m 9,007 ft / 2,746 m 273.34° 265.23° Asphalt 0 ft / 0 m 0 ft / 0 m
26R 75 ft / 23 m 5,482 ft / 1,671 m 268.33° 260.22° Asphalt 0 ft / 0 m 0 ft / 0 m

MMPR

Details ICAO MMPR (PVR)
Name LICENCIADO GUSTAVO DIAZ ORDAZ INTL
Region Mexico
Timezone America/Mexico_City (UTC-6.0)
Stats Elevation 23 ft / 7 m (AMSL)
Location 20.680069° -105.254153°
Runways 1
Magnetic Variation 6.889° E

METAR

Not found

TAF

TAF MMPR 172319Z 1800/1906 01005KT P6SM SCT020 BKN100 TX29/1822Z TN19/1813Z FM180200 34005KT P6SM SCT020CB BKN100 TEMPO 1803/1807 5SM TSRA FM180800 12005KT P6SM SCT020 BKN100 FM181600 30005KT P6SM SCT020 SCT100 BKN250 BECMG 1820/1821 24010KT FM190200 32005KT P6SM SCT00 BKN250

Decode

Destination Runways

ID Width Length Bearing (true) Bearing (mag) Surface Threshold Offset Overrun Length
04 148 ft / 45 m 10,221 ft / 3,116 m 47.05° 40.16° Asphalt 0 ft / 0 m 185 ft / 56 m
22 148 ft / 45 m 10,221 ft / 3,116 m 227.06° 220.17° Asphalt 0 ft / 0 m 185 ft / 56 m